sensor_id;sensor_type;location;lat;lon;timestamp;temperature;humidity
58638;DHT22;54976;51.510;7.522;2024-01-30T00:00:36;9.20;99.90
58638;DHT22;54976;51.510;7.522;2024-01-30T00:03:37;9.10;99.90
58638;DHT22;54976;51.510;7.522;2024-01-30T00:06:38;9.10;99.90
58638;DHT22;54976;51.510;7.522;2024-01-30T00:09:38;9.10;99.90
58638;DHT22;54976;51.510;7.522;2024-01-30T00:12:40;9.10;99.90
58638;DHT22;54976;51.510;7.522;2024-01-30T00:15:40;9.00;99.90
58638;DHT22;54976;51.510;7.522;2024-01-30T00:18:41;9.00;99.90
58638;DHT22;54976;51.510;7.522;2024-01-30T00:21:41;9.00;99.90
58638;DHT22;54976;51.510;7.522;2024-01-30T00:24:42;9.00;99.90
58638;DHT22;54976;51.510;7.522;2024-01-30T00:27:42;9.00;99.90
58638;DHT22;54976;51.510;7.522;2024-01-30T00:30:43;8.90;99.90
58638;DHT22;54976;51.510;7.522;2024-01-30T00:33:44;8.90;99.90
58638;DHT22;54976;51.510;7.522;2024-01-30T00:36:45;8.90;99.90
58638;DHT22;54976;51.510;7.522;2024-01-30T00:39:45;8.90;99.90
58638;DHT22;54976;51.510;7.522;2024-01-30T00:42:46;8.90;99.90
58638;DHT22;54976;51.510;7.522;2024-01-30T00:45:46;9.00;99.90
58638;DHT22;54976;51.510;7.522;2024-01-30T00:48:47;8.90;99.90
58638;DHT22;54976;51.510;7.522;2024-01-30T00:51:47;8.90;99.90
58638;DHT22;54976;51.510;7.522;2024-01-30T00:54:48;8.90;99.90
58638;DHT22;54976;51.510;7.522;2024-01-30T00:57:49;8.90;99.90
58638;DHT22;54976;51.510;7.522;2024-01-30T01:00:49;8.90;99.90
58638;DHT22;54976;51.510;7.522;2024-01-30T01:03:50;8.80;99.90
58638;DHT22;54976;51.510;7.522;2024-01-30T01:06:50;8.80;99.90
58638;DHT22;54976;51.510;7.522;2024-01-30T01:09:51;8.80;99.90
58638;DHT22;54976;51.510;7.522;2024-01-30T01:12:52;8.80;99.90
58638;DHT22;54976;51.510;7.522;2024-01-30T01:15:52;8.80;99.90
58638;DHT22;54976;51.510;7.522;2024-01-30T01:18:53;8.80;99.90
58638;DHT22;54976;51.510;7.522;2024-01-30T01:21:53;8.80;99.90
58638;DHT22;54976;51.510;7.522;2024-01-30T01:24:54;8.80;99.90
58638;DHT22;54976;51.510;7.522;2024-01-30T01:27:54;8.80;99.90
58638;DHT22;54976;51.510;7.522;2024-01-30T01:30:56;8.80;99.90
58638;DHT22;54976;51.510;7.522;2024-01-30T01:33:59;8.80;99.90
58638;DHT22;54976;51.510;7.522;2024-01-30T01:37:00;8.80;99.90
58638;DHT22;54976;51.510;7.522;2024-01-30T01:40:00;8.80;99.90
58638;DHT22;54976;51.510;7.522;2024-01-30T01:43:03;8.80;99.90
58638;DHT22;54976;51.510;7.522;2024-01-30T01:46:03;8.80;99.90
58638;DHT22;54976;51.510;7.522;2024-01-30T01:49:07;8.80;99.90
58638;DHT22;54976;51.510;7.522;2024-01-30T01:52:09;8.80;99.90
58638;DHT22;54976;51.510;7.522;2024-01-30T01:55:10;8.80;99.90
58638;DHT22;54976;51.510;7.522;2024-01-30T01:58:12;8.80;99.90
58638;DHT22;54976;51.510;7.522;2024-01-30T02:01:13;8.80;99.90
58638;DHT22;54976;51.510;7.522;2024-01-30T02:04:15;8.80;99.90
58638;DHT22;54976;51.510;7.522;2024-01-30T02:07:16;8.80;99.90
58638;DHT22;54976;51.510;7.522;2024-01-30T02:10:17;8.80;99.90
58638;DHT22;54976;51.510;7.522;2024-01-30T02:13:18;8.80;99.90
58638;DHT22;54976;51.510;7.522;2024-01-30T02:16:19;8.80;99.90
58638;DHT22;54976;51.510;7.522;2024-01-30T02:19:19;8.80;99.90
58638;DHT22;54976;51.510;7.522;2024-01-30T02:22:20;8.90;99.90
58638;DHT22;54976;51.510;7.522;2024-01-30T02:25:35;8.90;99.90
58638;DHT22;54976;51.510;7.522;2024-01-30T02:28:36;9.00;99.90
58638;DHT22;54976;51.510;7.522;2024-01-30T02:31:36;8.90;99.90
58638;DHT22;54976;51.510;7.522;2024-01-30T02:34:37;8.90;99.90
58638;DHT22;54976;51.510;7.522;2024-01-30T02:37:38;8.90;99.90
58638;DHT22;54976;51.510;7.522;2024-01-30T02:40:38;9.00;99.90
58638;DHT22;54976;51.510;7.522;2024-01-30T02:43:39;8.90;99.90
58638;DHT22;54976;51.510;7.522;2024-01-30T02:46:40;8.90;99.90
58638;DHT22;54976;51.510;7.522;2024-01-30T02:49:40;8.90;99.90
58638;DHT22;54976;51.510;7.522;2024-01-30T02:52:41;8.90;99.90
58638;DHT22;54976;51.510;7.522;2024-01-30T02:55:41;8.90;99.90
58638;DHT22;54976;51.510;7.522;2024-01-30T02:58:42;8.80;99.90
58638;DHT22;54976;51.510;7.522;2024-01-30T03:01:43;8.80;99.90
58638;DHT22;54976;51.510;7.522;2024-01-30T03:04:44;8.80;99.90
58638;DHT22;54976;51.510;7.522;2024-01-30T03:07:45;8.80;99.90
58638;DHT22;54976;51.510;7.522;2024-01-30T03:10:45;8.90;99.90
58638;DHT22;54976;51.510;7.522;2024-01-30T03:13:46;8.80;99.90
58638;DHT22;54976;51.510;7.522;2024-01-30T03:16:47;8.80;99.90
58638;DHT22;54976;51.510;7.522;2024-01-30T03:19:47;8.80;99.90
58638;DHT22;54976;51.510;7.522;2024-01-30T03:22:48;8.90;99.90
58638;DHT22;54976;51.510;7.522;2024-01-30T03:25:48;8.80;99.90
58638;DHT22;54976;51.510;7.522;2024-01-30T03:28:49;8.80;99.90
58638;DHT22;54976;51.510;7.522;2024-01-30T03:31:49;8.90;99.90
58638;DHT22;54976;51.510;7.522;2024-01-30T03:34:50;8.90;99.90
58638;DHT22;54976;51.510;7.522;2024-01-30T03:37:51;8.90;99.90
58638;DHT22;54976;51.510;7.522;2024-01-30T03:40:51;8.90;99.90
58638;DHT22;54976;51.510;7.522;2024-01-30T03:43:52;8.80;99.90
58638;DHT22;54976;51.510;7.522;2024-01-30T03:46:52;8.90;99.90
58638;DHT22;54976;51.510;7.522;2024-01-30T03:49:53;8.90;99.90
58638;DHT22;54976;51.510;7.522;2024-01-30T03:52:54;8.90;99.90
58638;DHT22;54976;51.510;7.522;2024-01-30T03:55:54;8.90;99.90
58638;DHT22;54976;51.510;7.522;2024-01-30T03:58:55;8.90;99.90
58638;DHT22;54976;51.510;7.522;2024-01-30T04:01:57;9.00;99.90
58638;DHT22;54976;51.510;7.522;2024-01-30T04:04:57;9.00;99.90
58638;DHT22;54976;51.510;7.522;2024-01-30T04:07:59;9.00;99.90
58638;DHT22;54976;51.510;7.522;2024-01-30T04:11:06;8.90;99.90
58638;DHT22;54976;51.510;7.522;2024-01-30T04:14:07;9.00;99.90
58638;DHT22;54976;51.510;7.522;2024-01-30T04:17:07;9.00;99.90
58638;DHT22;54976;51.510;7.522;2024-01-30T04:20:12;9.00;99.90
58638;DHT22;54976;51.510;7.522;2024-01-30T04:23:13;9.00;99.90
58638;DHT22;54976;51.510;7.522;2024-01-30T04:26:14;8.90;99.90
58638;DHT22;54976;51.510;7.522;2024-01-30T04:29:15;8.90;99.90
58638;DHT22;54976;51.510;7.522;2024-01-30T04:32:15;8.90;99.90
58638;DHT22;54976;51.510;7.522;2024-01-30T04:35:16;8.90;99.90
58638;DHT22;54976;51.510;7.522;2024-01-30T04:38:17;8.90;99.90
58638;DHT22;54976;51.510;7.522;2024-01-30T04:41:17;8.90;99.90
58638;DHT22;54976;51.510;7.522;2024-01-30T04:44:18;8.80;99.90
58638;DHT22;54976;51.510;7.522;2024-01-30T04:47:18;8.90;99.90
58638;DHT22;54976;51.510;7.522;2024-01-30T04:50:19;8.90;99.90
58638;DHT22;54976;51.510;7.522;2024-01-30T04:53:19;8.90;99.90
58638;DHT22;54976;51.510;7.522;2024-01-30T04:56:20;8.90;99.90
58638;DHT22;54976;51.510;7.522;2024-01-30T04:59:21;8.90;99.90
58638;DHT22;54976;51.510;7.522;2024-01-30T05:02:21;8.90;99.90
58638;DHT22;54976;51.510;7.522;2024-01-30T05:05:22;8.80;99.90
58638;DHT22;54976;51.510;7.522;2024-01-30T05:08:22;8.80;99.90
58638;DHT22;54976;51.510;7.522;2024-01-30T05:11:23;8.80;99.90
58638;DHT22;54976;51.510;7.522;2024-01-30T05:14:23;8.80;99.90
58638;DHT22;54976;51.510;7.522;2024-01-30T05:17:24;8.80;99.90
58638;DHT22;54976;51.510;7.522;2024-01-30T05:20:25;8.70;99.90
58638;DHT22;54976;51.510;7.522;2024-01-30T05:23:28;8.70;99.90
58638;DHT22;54976;51.510;7.522;2024-01-30T05:26:28;8.80;99.90
58638;DHT22;54976;51.510;7.522;2024-01-30T05:29:29;8.70;99.90
58638;DHT22;54976;51.510;7.522;2024-01-30T05:32:30;8.80;99.90
58638;DHT22;54976;51.510;7.522;2024-01-30T05:35:30;8.80;99.90
58638;DHT22;54976;51.510;7.522;2024-01-30T05:38:31;8.80;99.90
58638;DHT22;54976;51.510;7.522;2024-01-30T05:41:32;8.80;99.90
58638;DHT22;54976;51.510;7.522;2024-01-30T05:44:33;8.80;99.90
58638;DHT22;54976;51.510;7.522;2024-01-30T05:47:36;8.80;99.90
58638;DHT22;54976;51.510;7.522;2024-01-30T05:50:37;8.80;99.90
58638;DHT22;54976;51.510;7.522;2024-01-30T05:53:37;8.80;99.90
58638;DHT22;54976;51.510;7.522;2024-01-30T05:56:38;8.80;99.90
58638;DHT22;54976;51.510;7.522;2024-01-30T05:59:39;8.70;99.90
58638;DHT22;54976;51.510;7.522;2024-01-30T06:02:39;8.70;99.90
58638;DHT22;54976;51.510;7.522;2024-01-30T06:05:40;8.80;99.90
58638;DHT22;54976;51.510;7.522;2024-01-30T06:08:41;8.70;99.90
58638;DHT22;54976;51.510;7.522;2024-01-30T06:11:41;8.70;99.90
58638;DHT22;54976;51.510;7.522;2024-01-30T06:14:42;8.70;99.90
58638;DHT22;54976;51.510;7.522;2024-01-30T06:17:42;8.70;99.90
58638;DHT22;54976;51.510;7.522;2024-01-30T06:20:43;8.80;99.90
58638;DHT22;54976;51.510;7.522;2024-01-30T06:23:44;8.80;99.90
58638;DHT22;54976;51.510;7.522;2024-01-30T06:26:44;8.80;99.90
58638;DHT22;54976;51.510;7.522;2024-01-30T06:29:45;8.90;99.90
58638;DHT22;54976;51.510;7.522;2024-01-30T06:32:46;8.80;99.90
58638;DHT22;54976;51.510;7.522;2024-01-30T06:35:46;8.80;99.90
58638;DHT22;54976;51.510;7.522;2024-01-30T06:38:47;8.80;99.90
58638;DHT22;54976;51.510;7.522;2024-01-30T06:41:47;8.80;99.90
58638;DHT22;54976;51.510;7.522;2024-01-30T06:44:48;8.80;99.90
58638;DHT22;54976;51.510;7.522;2024-01-30T06:47:49;8.80;99.90
58638;DHT22;54976;51.510;7.522;2024-01-30T06:50:49;8.80;99.90
58638;DHT22;54976;51.510;7.522;2024-01-30T06:53:51;8.80;99.90
58638;DHT22;54976;51.510;7.522;2024-01-30T06:56:51;8.90;99.90
58638;DHT22;54976;51.510;7.522;2024-01-30T06:59:52;8.90;99.90
58638;DHT22;54976;51.510;7.522;2024-01-30T07:02:52;8.90;99.90
58638;DHT22;54976;51.510;7.522;2024-01-30T07:05:53;9.00;99.90
58638;DHT22;54976;51.510;7.522;2024-01-30T07:08:54;9.00;99.90
58638;DHT22;54976;51.510;7.522;2024-01-30T07:11:54;9.00;99.90
58638;DHT22;54976;51.510;7.522;2024-01-30T07:14:55;9.00;99.90
58638;DHT22;54976;51.510;7.522;2024-01-30T07:17:57;9.00;99.90
58638;DHT22;54976;51.510;7.522;2024-01-30T07:20:57;9.10;99.90
58638;DHT22;54976;51.510;7.522;2024-01-30T07:23:58;9.10;99.90
58638;DHT22;54976;51.510;7.522;2024-01-30T07:26:58;9.20;99.90
58638;DHT22;54976;51.510;7.522;2024-01-30T07:29:59;9.20;99.90
58638;DHT22;54976;51.510;7.522;2024-01-30T07:32:59;9.20;99.90
58638;DHT22;54976;51.510;7.522;2024-01-30T07:36:00;9.30;99.90
58638;DHT22;54976;51.510;7.522;2024-01-30T07:39:01;9.30;99.90
58638;DHT22;54976;51.510;7.522;2024-01-30T07:42:01;9.30;99.90
58638;DHT22;54976;51.510;7.522;2024-01-30T07:45:02;9.40;99.90
58638;DHT22;54976;51.510;7.522;2024-01-30T07:48:03;9.40;99.90
58638;DHT22;54976;51.510;7.522;2024-01-30T07:51:03;9.40;99.90
58638;DHT22;54976;51.510;7.522;2024-01-30T07:54:04;9.50;99.90
58638;DHT22;54976;51.510;7.522;2024-01-30T07:57:05;9.50;99.90
58638;DHT22;54976;51.510;7.522;2024-01-30T08:00:06;9.60;99.90
58638;DHT22;54976;51.510;7.522;2024-01-30T08:03:07;9.60;99.90
58638;DHT22;54976;51.510;7.522;2024-01-30T08:06:09;9.60;99.90
58638;DHT22;54976;51.510;7.522;2024-01-30T08:09:09;9.70;99.90
58638;DHT22;54976;51.510;7.522;2024-01-30T08:12:11;9.80;99.90
58638;DHT22;54976;51.510;7.522;2024-01-30T08:15:13;10.00;99.90
58638;DHT22;54976;51.510;7.522;2024-01-30T08:18:13;10.00;99.90
58638;DHT22;54976;51.510;7.522;2024-01-30T08:21:14;10.00;99.90
58638;DHT22;54976;51.510;7.522;2024-01-30T08:24:15;10.10;99.90
58638;DHT22;54976;51.510;7.522;2024-01-30T08:27:15;10.20;99.90
58638;DHT22;54976;51.510;7.522;2024-01-30T08:30:16;10.30;99.90
58638;DHT22;54976;51.510;7.522;2024-01-30T08:33:17;10.40;99.90
58638;DHT22;54976;51.510;7.522;2024-01-30T08:36:17;10.50;99.90
58638;DHT22;54976;51.510;7.522;2024-01-30T08:39:18;10.70;99.90
58638;DHT22;54976;51.510;7.522;2024-01-30T08:42:19;10.60;99.90
58638;DHT22;54976;51.510;7.522;2024-01-30T08:45:22;10.60;99.90
58638;DHT22;54976;51.510;7.522;2024-01-30T08:48:23;10.70;99.90
58638;DHT22;54976;51.510;7.522;2024-01-30T08:51:24;10.70;99.90
58638;DHT22;54976;51.510;7.522;2024-01-30T08:54:24;10.80;99.90
58638;DHT22;54976;51.510;7.522;2024-01-30T08:57:25;10.80;99.90
58638;DHT22;54976;51.510;7.522;2024-01-30T09:00:29;10.90;99.90
58638;DHT22;54976;51.510;7.522;2024-01-30T09:03:29;11.00;99.90
58638;DHT22;54976;51.510;7.522;2024-01-30T09:06:30;11.10;99.90
58638;DHT22;54976;51.510;7.522;2024-01-30T09:09:31;11.20;99.90
58638;DHT22;54976;51.510;7.522;2024-01-30T09:12:32;11.20;99.90
58638;DHT22;54976;51.510;7.522;2024-01-30T09:15:32;11.30;99.90
58638;DHT22;54976;51.510;7.522;2024-01-30T09:18:33;11.50;99.90
58638;DHT22;54976;51.510;7.522;2024-01-30T09:21:34;11.50;99.90
58638;DHT22;54976;51.510;7.522;2024-01-30T09:24:34;11.70;99.90
58638;DHT22;54976;51.510;7.522;2024-01-30T09:27:35;11.60;99.90
58638;DHT22;54976;51.510;7.522;2024-01-30T09:30:35;11.60;99.90
58638;DHT22;54976;51.510;7.522;2024-01-30T09:33:36;11.80;99.90
58638;DHT22;54976;51.510;7.522;2024-01-30T09:36:37;11.80;99.90
58638;DHT22;54976;51.510;7.522;2024-01-30T09:39:37;11.90;99.90
58638;DHT22;54976;51.510;7.522;2024-01-30T09:42:38;12.00;99.90
58638;DHT22;54976;51.510;7.522;2024-01-30T09:45:42;12.20;99.70
58638;DHT22;54976;51.510;7.522;2024-01-30T09:48:48;12.20;99.60
58638;DHT22;54976;51.510;7.522;2024-01-30T09:51:49;12.30;99.30
58638;DHT22;54976;51.510;7.522;2024-01-30T09:54:51;12.40;98.80
58638;DHT22;54976;51.510;7.522;2024-01-30T09:57:52;12.50;98.60
58638;DHT22;54976;51.510;7.522;2024-01-30T10:00:53;12.50;98.60
58638;DHT22;54976;51.510;7.522;2024-01-30T10:03:54;12.50;98.30
58638;DHT22;54976;51.510;7.522;2024-01-30T10:06:54;12.60;98.70
58638;DHT22;54976;51.510;7.522;2024-01-30T10:09:55;12.40;98.10
58638;DHT22;54976;51.510;7.522;2024-01-30T10:12:57;12.40;98.40
58638;DHT22;54976;51.510;7.522;2024-01-30T10:15:57;12.50;98.40
58638;DHT22;54976;51.510;7.522;2024-01-30T10:18:58;12.50;98.10
58638;DHT22;54976;51.510;7.522;2024-01-30T10:22:00;12.60;98.00
58638;DHT22;54976;51.510;7.522;2024-01-30T10:25:00;12.90;98.20
58638;DHT22;54976;51.510;7.522;2024-01-30T10:28:01;12.80;97.60
58638;DHT22;54976;51.510;7.522;2024-01-30T10:31:02;12.90;97.20
58638;DHT22;54976;51.510;7.522;2024-01-30T10:34:06;12.90;97.00
58638;DHT22;54976;51.510;7.522;2024-01-30T10:37:10;13.00;96.70
58638;DHT22;54976;51.510;7.522;2024-01-30T10:40:17;13.10;96.20
58638;DHT22;54976;51.510;7.522;2024-01-30T10:43:21;13.30;96.30
58638;DHT22;54976;51.510;7.522;2024-01-30T10:46:24;13.50;95.70
58638;DHT22;54976;51.510;7.522;2024-01-30T10:49:30;13.60;95.00
58638;DHT22;54976;51.510;7.522;2024-01-30T10:52:32;13.80;94.90
58638;DHT22;54976;51.510;7.522;2024-01-30T10:55:34;14.00;94.10
58638;DHT22;54976;51.510;7.522;2024-01-30T10:58:35;13.90;94.20
58638;DHT22;54976;51.510;7.522;2024-01-30T11:01:36;13.80;94.30
58638;DHT22;54976;51.510;7.522;2024-01-30T11:04:37;14.00;94.30
58638;DHT22;54976;51.510;7.522;2024-01-30T11:07:39;13.90;94.00
58638;DHT22;54976;51.510;7.522;2024-01-30T11:10:46;13.90;93.90
58638;DHT22;54976;51.510;7.522;2024-01-30T11:13:50;14.00;93.60
58638;DHT22;54976;51.510;7.522;2024-01-30T11:16:50;14.10;93.40
58638;DHT22;54976;51.510;7.522;2024-01-30T11:19:52;14.10;93.30
58638;DHT22;54976;51.510;7.522;2024-01-30T11:22:55;14.20;93.10
58638;DHT22;54976;51.510;7.522;2024-01-30T11:25:57;14.20;93.10
58638;DHT22;54976;51.510;7.522;2024-01-30T11:28:57;14.20;93.20
58638;DHT22;54976;51.510;7.522;2024-01-30T11:31:58;14.20;93.10
58638;DHT22;54976;51.510;7.522;2024-01-30T11:34:59;14.30;93.10
58638;DHT22;54976;51.510;7.522;2024-01-30T11:38:00;14.30;92.90
58638;DHT22;54976;51.510;7.522;2024-01-30T11:41:02;14.30;93.10
58638;DHT22;54976;51.510;7.522;2024-01-30T11:44:04;14.30;93.50
58638;DHT22;54976;51.510;7.522;2024-01-30T11:47:04;14.40;92.90
58638;DHT22;54976;51.510;7.522;2024-01-30T11:50:05;14.50;93.10
58638;DHT22;54976;51.510;7.522;2024-01-30T11:53:07;14.60;92.80
58638;DHT22;54976;51.510;7.522;2024-01-30T11:56:07;14.60;93.20
58638;DHT22;54976;51.510;7.522;2024-01-30T11:59:08;14.50;93.90
58638;DHT22;54976;51.510;7.522;2024-01-30T12:02:09;14.60;94.20
58638;DHT22;54976;51.510;7.522;2024-01-30T12:05:15;14.60;94.60
58638;DHT22;54976;51.510;7.522;2024-01-30T12:08:16;14.50;94.80
58638;DHT22;54976;51.510;7.522;2024-01-30T12:11:17;14.40;95.40
58638;DHT22;54976;51.510;7.522;2024-01-30T12:14:18;14.30;95.40
58638;DHT22;54976;51.510;7.522;2024-01-30T12:17:38;14.30;95.80
58638;DHT22;54976;51.510;7.522;2024-01-30T12:20:39;14.20;95.90
58638;DHT22;54976;51.510;7.522;2024-01-30T12:23:39;14.20;96.20
58638;DHT22;54976;51.510;7.522;2024-01-30T12:26:40;14.20;96.30
58638;DHT22;54976;51.510;7.522;2024-01-30T12:29:42;14.20;96.30
58638;DHT22;54976;51.510;7.522;2024-01-30T12:32:46;14.20;96.50
58638;DHT22;54976;51.510;7.522;2024-01-30T12:35:49;14.20;96.50
58638;DHT22;54976;51.510;7.522;2024-01-30T12:38:50;14.30;96.80
58638;DHT22;54976;51.510;7.522;2024-01-30T12:41:51;14.20;96.70
58638;DHT22;54976;51.510;7.522;2024-01-30T12:44:52;14.10;97.00
58638;DHT22;54976;51.510;7.522;2024-01-30T12:47:53;14.10;97.20
58638;DHT22;54976;51.510;7.522;2024-01-30T12:50:53;14.00;97.60
58638;DHT22;54976;51.510;7.522;2024-01-30T12:53:54;13.90;97.70
58638;DHT22;54976;51.510;7.522;2024-01-30T12:56:54;13.80;98.10
58638;DHT22;54976;51.510;7.522;2024-01-30T12:59:56;13.70;98.40
58638;DHT22;54976;51.510;7.522;2024-01-30T13:02:57;13.60;98.80
58638;DHT22;54976;51.510;7.522;2024-01-30T13:05:58;13.50;99.50
58638;DHT22;54976;51.510;7.522;2024-01-30T13:08:58;13.50;99.60
58638;DHT22;54976;51.510;7.522;2024-01-30T13:12:00;13.40;99.90
58638;DHT22;54976;51.510;7.522;2024-01-30T13:15:00;13.30;99.90
58638;DHT22;54976;51.510;7.522;2024-01-30T13:18:01;13.40;99.90
58638;DHT22;54976;51.510;7.522;2024-01-30T13:21:02;13.30;99.90
58638;DHT22;54976;51.510;7.522;2024-01-30T13:24:04;13.40;99.90
58638;DHT22;54976;51.510;7.522;2024-01-30T13:27:04;13.40;99.90
58638;DHT22;54976;51.510;7.522;2024-01-30T13:30:07;13.40;99.90
58638;DHT22;54976;51.510;7.522;2024-01-30T13:33:09;13.40;99.90
58638;DHT22;54976;51.510;7.522;2024-01-30T13:36:11;13.40;99.90
58638;DHT22;54976;51.510;7.522;2024-01-30T13:39:12;13.40;99.90
58638;DHT22;54976;51.510;7.522;2024-01-30T13:42:13;13.40;99.90
58638;DHT22;54976;51.510;7.522;2024-01-30T13:45:13;13.30;99.90
58638;DHT22;54976;51.510;7.522;2024-01-30T13:48:14;13.30;99.90
58638;DHT22;54976;51.510;7.522;2024-01-30T13:51:14;13.20;99.90
58638;DHT22;54976;51.510;7.522;2024-01-30T13:54:18;13.10;99.90
58638;DHT22;54976;51.510;7.522;2024-01-30T13:57:18;13.20;99.90
58638;DHT22;54976;51.510;7.522;2024-01-30T14:00:19;13.10;99.90
58638;DHT22;54976;51.510;7.522;2024-01-30T14:03:22;13.10;99.90
58638;DHT22;54976;51.510;7.522;2024-01-30T14:06:23;13.00;99.90
58638;DHT22;54976;51.510;7.522;2024-01-30T14:09:23;13.00;99.90
58638;DHT22;54976;51.510;7.522;2024-01-30T14:12:24;12.90;99.90
58638;DHT22;54976;51.510;7.522;2024-01-30T14:15:25;12.90;99.90
58638;DHT22;54976;51.510;7.522;2024-01-30T14:18:25;12.90;99.90
58638;DHT22;54976;51.510;7.522;2024-01-30T14:21:26;12.80;99.90
58638;DHT22;54976;51.510;7.522;2024-01-30T14:24:27;12.80;99.90
58638;DHT22;54976;51.510;7.522;2024-01-30T14:27:27;12.80;99.90
58638;DHT22;54976;51.510;7.522;2024-01-30T14:30:28;12.70;99.90
58638;DHT22;54976;51.510;7.522;2024-01-30T14:33:28;12.70;99.90
58638;DHT22;54976;51.510;7.522;2024-01-30T14:36:29;12.70;99.90
58638;DHT22;54976;51.510;7.522;2024-01-30T14:39:30;12.70;99.90
58638;DHT22;54976;51.510;7.522;2024-01-30T14:42:30;12.70;99.90
58638;DHT22;54976;51.510;7.522;2024-01-30T14:45:33;12.70;99.90
58638;DHT22;54976;51.510;7.522;2024-01-30T14:48:34;12.70;99.90
58638;DHT22;54976;51.510;7.522;2024-01-30T14:51:35;12.80;99.90
58638;DHT22;54976;51.510;7.522;2024-01-30T14:54:35;12.90;99.90
58638;DHT22;54976;51.510;7.522;2024-01-30T14:57:36;12.80;99.90
58638;DHT22;54976;51.510;7.522;2024-01-30T15:00:38;12.90;99.90
58638;DHT22;54976;51.510;7.522;2024-01-30T15:03:38;12.90;99.90
58638;DHT22;54976;51.510;7.522;2024-01-30T15:06:40;12.90;99.90
58638;DHT22;54976;51.510;7.522;2024-01-30T15:09:45;12.90;99.90
58638;DHT22;54976;51.510;7.522;2024-01-30T15:12:46;12.90;99.90
58638;DHT22;54976;51.510;7.522;2024-01-30T15:15:47;12.80;99.90
58638;DHT22;54976;51.510;7.522;2024-01-30T15:18:47;12.80;99.90
58638;DHT22;54976;51.510;7.522;2024-01-30T15:21:48;12.70;99.90
58638;DHT22;54976;51.510;7.522;2024-01-30T15:24:48;12.80;99.90
58638;DHT22;54976;51.510;7.522;2024-01-30T15:27:50;12.80;99.90
58638;DHT22;54976;51.510;7.522;2024-01-30T15:30:51;12.80;99.90
58638;DHT22;54976;51.510;7.522;2024-01-30T15:33:51;12.70;99.90
58638;DHT22;54976;51.510;7.522;2024-01-30T15:36:52;12.70;99.90
58638;DHT22;54976;51.510;7.522;2024-01-30T15:39:53;12.60;99.90
58638;DHT22;54976;51.510;7.522;2024-01-30T15:42:53;12.60;99.90
58638;DHT22;54976;51.510;7.522;2024-01-30T15:45:54;12.60;99.90
58638;DHT22;54976;51.510;7.522;2024-01-30T15:48:54;12.60;99.90
58638;DHT22;54976;51.510;7.522;2024-01-30T15:51:55;12.60;99.90
58638;DHT22;54976;51.510;7.522;2024-01-30T15:54:56;12.60;99.90
58638;DHT22;54976;51.510;7.522;2024-01-30T15:57:56;12.60;99.90
58638;DHT22;54976;51.510;7.522;2024-01-30T16:00:57;12.50;99.90
58638;DHT22;54976;51.510;7.522;2024-01-30T16:03:57;12.50;99.90
58638;DHT22;54976;51.510;7.522;2024-01-30T16:06:58;12.50;99.90
58638;DHT22;54976;51.510;7.522;2024-01-30T16:09:59;12.50;99.90
58638;DHT22;54976;51.510;7.522;2024-01-30T16:12:59;12.40;99.90
58638;DHT22;54976;51.510;7.522;2024-01-30T16:16:00;12.40;99.90
58638;DHT22;54976;51.510;7.522;2024-01-30T16:19:01;12.40;99.90
58638;DHT22;54976;51.510;7.522;2024-01-30T16:22:01;12.30;99.90
58638;DHT22;54976;51.510;7.522;2024-01-30T16:25:05;12.30;99.30
58638;DHT22;54976;51.510;7.522;2024-01-30T16:28:06;12.20;99.40
58638;DHT22;54976;51.510;7.522;2024-01-30T16:31:06;12.10;98.80
58638;DHT22;54976;51.510;7.522;2024-01-30T16:34:07;12.10;98.70
58638;DHT22;54976;51.510;7.522;2024-01-30T16:37:08;12.00;98.60
58638;DHT22;54976;51.510;7.522;2024-01-30T16:40:08;12.10;98.00
58638;DHT22;54976;51.510;7.522;2024-01-30T16:43:11;11.90;97.10
58638;DHT22;54976;51.510;7.522;2024-01-30T16:46:11;11.90;96.30
58638;DHT22;54976;51.510;7.522;2024-01-30T16:49:12;11.80;95.60
58638;DHT22;54976;51.510;7.522;2024-01-30T16:52:13;11.70;94.30
58638;DHT22;54976;51.510;7.522;2024-01-30T16:55:13;11.70;93.80
58638;DHT22;54976;51.510;7.522;2024-01-30T16:58:14;11.60;93.50
58638;DHT22;54976;51.510;7.522;2024-01-30T17:01:14;11.60;93.10
58638;DHT22;54976;51.510;7.522;2024-01-30T17:04:18;11.50;93.30
58638;DHT22;54976;51.510;7.522;2024-01-30T17:07:21;11.50;93.20
58638;DHT22;54976;51.510;7.522;2024-01-30T17:10:24;11.50;93.40
58638;DHT22;54976;51.510;7.522;2024-01-30T17:13:25;11.50;93.10
58638;DHT22;54976;51.510;7.522;2024-01-30T17:16:25;11.50;92.90
58638;DHT22;54976;51.510;7.522;2024-01-30T17:19:26;11.40;93.00
58638;DHT22;54976;51.510;7.522;2024-01-30T17:22:26;11.40;93.30
58638;DHT22;54976;51.510;7.522;2024-01-30T17:25:29;11.30;93.10
58638;DHT22;54976;51.510;7.522;2024-01-30T17:28:29;11.30;93.10
58638;DHT22;54976;51.510;7.522;2024-01-30T17:31:30;11.30;93.10
58638;DHT22;54976;51.510;7.522;2024-01-30T17:34:32;11.20;93.10
58638;DHT22;54976;51.510;7.522;2024-01-30T17:37:32;11.20;93.00
58638;DHT22;54976;51.510;7.522;2024-01-30T17:40:35;11.20;93.30
58638;DHT22;54976;51.510;7.522;2024-01-30T17:43:35;11.00;93.50
58638;DHT22;54976;51.510;7.522;2024-01-30T17:46:36;10.90;93.60
58638;DHT22;54976;51.510;7.522;2024-01-30T17:49:36;10.80;93.70
58638;DHT22;54976;51.510;7.522;2024-01-30T17:52:38;10.80;93.70
58638;DHT22;54976;51.510;7.522;2024-01-30T17:55:39;10.80;94.10
58638;DHT22;54976;51.510;7.522;2024-01-30T17:58:39;10.80;94.20
58638;DHT22;54976;51.510;7.522;2024-01-30T18:01:46;10.80;94.10
58638;DHT22;54976;51.510;7.522;2024-01-30T18:04:47;10.80;94.10
58638;DHT22;54976;51.510;7.522;2024-01-30T18:07:48;10.80;94.00
58638;DHT22;54976;51.510;7.522;2024-01-30T18:10:49;10.80;93.80
58638;DHT22;54976;51.510;7.522;2024-01-30T18:13:50;10.80;94.20
58638;DHT22;54976;51.510;7.522;2024-01-30T18:16:52;10.80;93.80
58638;DHT22;54976;51.510;7.522;2024-01-30T18:19:53;10.70;93.80
58638;DHT22;54976;51.510;7.522;2024-01-30T18:22:53;10.70;93.90
58638;DHT22;54976;51.510;7.522;2024-01-30T18:25:54;10.70;94.00
58638;DHT22;54976;51.510;7.522;2024-01-30T18:29:00;10.70;94.40
58638;DHT22;54976;51.510;7.522;2024-01-30T18:32:01;10.60;94.60
58638;DHT22;54976;51.510;7.522;2024-01-30T18:35:02;10.60;95.20
58638;DHT22;54976;51.510;7.522;2024-01-30T18:38:03;10.60;96.60
58638;DHT22;54976;51.510;7.522;2024-01-30T18:41:03;10.50;98.10
58638;DHT22;54976;51.510;7.522;2024-01-30T18:44:04;10.40;98.30
58638;DHT22;54976;51.510;7.522;2024-01-30T18:47:05;10.30;98.10
58638;DHT22;54976;51.510;7.522;2024-01-30T18:50:06;10.20;98.10
58638;DHT22;54976;51.510;7.522;2024-01-30T18:53:07;10.20;97.80
58638;DHT22;54976;51.510;7.522;2024-01-30T18:56:07;10.20;97.50
58638;DHT22;54976;51.510;7.522;2024-01-30T18:59:08;10.10;97.40
58638;DHT22;54976;51.510;7.522;2024-01-30T19:02:09;10.10;97.50
58638;DHT22;54976;51.510;7.522;2024-01-30T19:05:10;10.10;97.40
58638;DHT22;54976;51.510;7.522;2024-01-30T19:08:11;10.00;97.50
58638;DHT22;54976;51.510;7.522;2024-01-30T19:11:18;10.00;97.40